Pagrindinis puslapis
METAR-TAF:

METAR-TAF

Oro uostai :

Adijamanas, Turkija

platuma: 37-43-54N, ilguma: 38-28-08E, Aukštis: 675 m

Dabartinis oras

Ataskaita buvo paskelbta 28 minutes, ne 07:50 UTC
Vėjas 2 kt nuo kintamojo kryptimis
Temperatūra 25°C
Drėgmė 39%
Slėgis 1019 hPa
Matomumas 10 km arba daugiau
Išsisklaidę debesys ne aukštis 4000 ft
Išsisklaidę debesys ne aukštis 10000 ft

METAR: LTCP 180750Z VRB02KT 9999 SCT040 SCT100 25/10 Q1019

Laikas: 11:18 (08:18 UTC)

Prognozė

Ataskaita buvo paskelbta 3 valandos ir 38 minutes, ne 04:40 UTC
Prognozė galioja nuo 18 metu 06 UTC su 18 metu 15 UTC
Vėjas 2 kt nuo kintamojo kryptimis
Matomumas 10 km arba daugiau
Mažai debesys ne aukštis 4000 ft
Su prošvaistėmis ne aukštis 10000 ft

TAF: LTCP 180440Z 1806/1815 VRB02KT 9999 FEW040 BKN100

Orai ataskaitas ir orų prognozės (METAR, TAF).

turimą stotys yra geltonos ir raudonos taškus žemėlapyje.

Perkelti pele per norėdami pamatyti stoties vardą.

Tada spustelėkite, norėdami matyti oro stebėjimo ir prognozės.

Norėdami pakeisti žemėlapį: spustelėkite ant žalios mygtukų su juodo kryžiaus žemyn,; žalią mygtuką su brūkšneliu, jei norite nutolinti; arba žalių rodyklių gretimoms žemėlapius.


METAR-TAF: